Underhill Flats, Vermont
Current Conditions -  °F | °C
As of 9:54 AM on Sunday 23 Nov 2014 (Local Time) from KBTV Reporting Station
Overcast Overcast  
Wind Chill: 38°   Ceiling: 2600
Heat Index: 43°   Visibility: 10mi
Dew Point: 36°   Wind: 9mph
Humidity: 76%   Direction: 210°SSW
Pressure: 30.08"   Gusts: NA
Location:  44.5378°N, 72.8938°W
Report Text: KBTV 231454Z 21008KT 10SM OVC026 06/02 A3008 RMK AO2 SLP189 CLDS OBSCG MTNS E-SE T00610022 52016
Loading
Personal Weather Stations






























Interactive Weather Map New forecast layout! Learn more

10-Day Weather Forecast

Advertisements
Track Severe Weather on mobile